createdAt,value
2018-04-30T00:01:50.299Z,16.00
2018-04-30T00:04:20.122Z,16.00
2018-04-30T00:06:50.012Z,16.00
2018-04-30T00:09:19.183Z,16.00
2018-04-30T00:11:48.251Z,16.00
2018-04-30T00:14:17.320Z,15.90
2018-04-30T00:16:46.449Z,15.90
2018-04-30T00:19:15.584Z,15.90
2018-04-30T00:21:44.676Z,15.80
2018-04-30T00:24:13.788Z,15.80
2018-04-30T00:26:43.648Z,15.90
2018-04-30T00:29:13.483Z,15.80
2018-04-30T00:31:43.341Z,15.80
2018-04-30T00:34:12.451Z,15.80
2018-04-30T00:36:41.576Z,15.80
2018-04-30T00:39:10.790Z,15.80
2018-04-30T00:41:39.918Z,15.80
2018-04-30T00:44:09.048Z,15.80
2018-04-30T00:46:38.108Z,15.80
2018-04-30T00:49:07.252Z,15.80
2018-04-30T00:51:36.311Z,15.80
2018-04-30T00:54:05.375Z,15.80
2018-04-30T00:56:34.495Z,15.80
2018-04-30T00:59:03.584Z,15.80
2018-04-30T01:01:32.687Z,15.80
2018-04-30T01:04:01.792Z,15.80
2018-04-30T01:06:30.883Z,15.80
2018-04-30T01:08:59.948Z,15.80
2018-04-30T01:11:29.050Z,15.80
2018-04-30T01:13:58.183Z,15.70
2018-04-30T01:16:28.019Z,15.70
2018-04-30T01:18:58.048Z,15.70
2018-04-30T01:21:27.177Z,15.70
2018-04-30T01:23:56.290Z,15.70
2018-04-30T01:26:25.368Z,15.70
2018-04-30T01:28:55.228Z,15.60
2018-04-30T01:31:24.636Z,15.60
2018-04-30T01:33:53.739Z,15.60
2018-04-30T01:36:22.841Z,15.50
2018-04-30T01:38:52.680Z,15.60
2018-04-30T01:41:21.779Z,15.60
2018-04-30T01:43:51.644Z,15.50
2018-04-30T01:46:20.726Z,15.50
2018-04-30T01:48:50.592Z,15.40
2018-04-30T01:51:19.692Z,15.40
2018-04-30T01:53:48.798Z,15.40
2018-04-30T01:56:17.867Z,15.40
2018-04-30T01:58:47.701Z,15.30
2018-04-30T02:01:17.565Z,15.30
2018-04-30T02:03:46.676Z,15.30
2018-04-30T02:06:15.781Z,15.30
2018-04-30T02:08:44.852Z,15.30
2018-04-30T02:11:14.736Z,15.30
2018-04-30T02:13:43.799Z,15.20
2018-04-30T02:16:13.631Z,15.20
2018-04-30T02:18:43.468Z,15.20
2018-04-30T02:21:13.478Z,15.20
2018-04-30T02:23:43.326Z,15.20
2018-04-30T02:26:12.395Z,15.10
2018-04-30T02:28:41.531Z,15.10
2018-04-30T02:31:11.429Z,15.10
2018-04-30T02:33:40.636Z,15.10
2018-04-30T02:36:10.419Z,15.00
2018-04-30T02:38:39.532Z,15.00
2018-04-30T02:41:08.603Z,15.00
2018-04-30T02:43:37.731Z,15.00
2018-04-30T02:46:07.575Z,15.00
2018-04-30T02:48:37.469Z,15.00
2018-04-30T02:51:06.748Z,14.90
2018-04-30T02:53:35.832Z,14.90
2018-04-30T02:56:04.941Z,14.90
2018-04-30T02:58:34.297Z,14.90
2018-04-30T03:01:03.376Z,14.80
2018-04-30T03:03:32.444Z,14.80
2018-04-30T03:06:01.548Z,14.70
2018-04-30T03:08:30.684Z,14.80
2018-04-30T03:11:00.586Z,14.70
2018-04-30T03:13:29.771Z,14.70
2018-04-30T03:15:58.843Z,14.70
2018-04-30T03:18:28.679Z,14.60
2018-04-30T03:20:58.572Z,14.60
2018-04-30T03:23:27.680Z,14.60
2018-04-30T03:25:56.790Z,14.60
2018-04-30T03:28:25.889Z,14.60
2018-04-30T03:30:54.964Z,14.50
2018-04-30T03:33:24.047Z,14.50
2018-04-30T03:35:53.945Z,14.50
2018-04-30T03:38:23.094Z,14.40
2018-04-30T03:40:52.175Z,14.40
2018-04-30T03:43:21.246Z,14.40
2018-04-30T03:45:50.312Z,14.40
2018-04-30T03:48:20.139Z,14.40
2018-04-30T03:50:50.248Z,14.40
2018-04-30T03:53:19.385Z,14.40
2018-04-30T03:55:49.252Z,14.40
2018-04-30T03:58:18.417Z,14.40
2018-04-30T04:01:06.132Z,14.40
2018-04-30T04:03:53.233Z,14.40
2018-04-30T04:09:30.665Z,14.40
2018-04-30T04:11:59.800Z,14.50
2018-04-30T04:14:28.999Z,14.50
2018-04-30T04:16:58.066Z,14.50
2018-04-30T04:19:27.144Z,14.40
2018-04-30T04:21:56.215Z,14.40
2018-04-30T04:24:26.143Z,14.50
2018-04-30T04:26:56.068Z,14.40
2018-04-30T04:29:25.945Z,14.50
2018-04-30T04:31:55.016Z,14.40
2018-04-30T04:34:24.086Z,14.50
2018-04-30T04:36:53.246Z,14.50
2018-04-30T04:39:22.338Z,14.50
2018-04-30T04:41:52.193Z,14.70
2018-04-30T04:44:21.259Z,14.60
2018-04-30T04:46:50.343Z,14.70
2018-04-30T04:49:20.260Z,14.70
2018-04-30T04:51:49.327Z,14.70
2018-04-30T04:54:19.150Z,14.80
2018-04-30T04:56:49.028Z,14.70
2018-04-30T04:59:18.099Z,14.70
2018-04-30T05:01:48.048Z,14.90
2018-04-30T05:04:17.146Z,14.90
2018-04-30T05:06:46.211Z,15.00
2018-04-30T05:09:15.333Z,15.10
2018-04-30T05:11:44.404Z,15.10
2018-04-30T05:14:13.486Z,15.10
2018-04-30T05:16:42.554Z,15.20
2018-04-30T05:19:11.735Z,15.30
2018-04-30T05:21:40.795Z,15.30
2018-04-30T05:24:10.660Z,15.40
2018-04-30T05:26:39.735Z,15.40
2018-04-30T05:29:09.596Z,15.50
2018-04-30T05:31:38.700Z,15.50
2018-04-30T05:34:07.796Z,15.60
2018-04-30T05:36:36.866Z,15.60
2018-04-30T05:39:05.999Z,15.80
2018-04-30T05:41:35.827Z,16.10
2018-04-30T05:44:04.953Z,16.10
2018-04-30T05:46:34.088Z,16.20
2018-04-30T05:49:03.184Z,16.40
2018-04-30T05:51:32.313Z,16.60
2018-04-30T05:54:01.472Z,16.70
2018-04-30T05:56:30.535Z,16.80
2018-04-30T05:58:59.604Z,16.90
2018-04-30T06:01:28.846Z,17.10
2018-04-30T06:03:57.997Z,17.20
2018-04-30T06:06:27.079Z,17.10
2018-04-30T06:08:56.164Z,17.10
2018-04-30T06:11:26.024Z,17.10
2018-04-30T06:13:55.157Z,17.10
2018-04-30T06:16:24.251Z,17.00
2018-04-30T06:18:53.351Z,17.10
2018-04-30T06:21:22.450Z,17.00
2018-04-30T06:23:51.523Z,17.10
2018-04-30T06:26:20.696Z,17.10
2018-04-30T06:28:49.812Z,17.20
2018-04-30T06:31:18.913Z,17.20
2018-04-30T06:33:47.995Z,17.30
2018-04-30T06:36:17.085Z,17.40
2018-04-30T06:38:46.959Z,17.50
2018-04-30T06:41:16.032Z,17.50
2018-04-30T06:43:45.888Z,17.70
2018-04-30T06:46:14.955Z,17.70
2018-04-30T06:48:44.079Z,17.70
2018-04-30T06:51:13.911Z,17.90
2018-04-30T06:53:43.821Z,18.00
2018-04-30T06:56:12.878Z,18.00
2018-04-30T06:58:41.934Z,18.00
2018-04-30T07:01:11.029Z,18.10
2018-04-30T07:03:40.095Z,18.20
2018-04-30T07:06:09.185Z,18.30
2018-04-30T07:08:39.089Z,18.50
2018-04-30T07:11:08.154Z,18.50
2018-04-30T07:13:37.438Z,18.60
2018-04-30T07:16:07.300Z,18.90
2018-04-30T07:18:36.404Z,18.80
2018-04-30T07:21:05.459Z,19.00
2018-04-30T07:23:34.548Z,19.10
2018-04-30T07:26:03.634Z,19.20
2018-04-30T07:28:32.726Z,19.30
2018-04-30T07:31:01.853Z,19.40
2018-04-30T07:33:30.915Z,19.50
2018-04-30T07:36:00.013Z,19.60
2018-04-30T07:38:29.108Z,19.70
2018-04-30T07:40:58.319Z,19.70
2018-04-30T07:43:27.403Z,19.90
2018-04-30T07:45:56.496Z,20.00
2018-04-30T07:48:26.359Z,20.20
2018-04-30T07:50:55.471Z,20.20
2018-04-30T07:53:24.537Z,20.50
2018-04-30T07:55:54.355Z,20.70
2018-04-30T07:58:24.290Z,20.80
2018-04-30T08:00:54.412Z,20.90
2018-04-30T08:03:23.503Z,20.90
2018-04-30T08:05:52.635Z,21.00
2018-04-30T08:08:22.464Z,21.10
2018-04-30T08:10:51.537Z,21.10
2018-04-30T08:13:20.595Z,21.20
2018-04-30T08:15:50.509Z,21.50
2018-04-30T08:18:19.651Z,21.40
2018-04-30T08:20:48.716Z,21.60
2018-04-30T08:23:17.808Z,21.80
2018-04-30T08:25:46.900Z,21.90
2018-04-30T08:28:15.996Z,22.00
2018-04-30T08:30:45.068Z,22.10
2018-04-30T08:33:14.922Z,22.20
2018-04-30T08:35:44.787Z,22.30
2018-04-30T08:38:13.847Z,22.30
2018-04-30T08:40:43.676Z,22.60
2018-04-30T08:43:13.532Z,22.70
2018-04-30T08:45:42.675Z,22.70
2018-04-30T08:48:11.763Z,22.80
2018-04-30T08:50:40.824Z,22.90
2018-04-30T08:53:09.919Z,23.00
2018-04-30T08:55:39.008Z,23.10
2018-04-30T08:58:08.136Z,23.20
2018-04-30T09:00:37.304Z,23.30
2018-04-30T09:03:07.099Z,23.60
2018-04-30T09:05:36.959Z,23.70
2018-04-30T09:08:06.048Z,23.70
2018-04-30T09:10:35.980Z,24.00
2018-04-30T09:13:05.803Z,24.10
2018-04-30T09:15:35.623Z,24.20
2018-04-30T09:18:05.548Z,24.30
2018-04-30T09:20:35.405Z,24.50
2018-04-30T09:23:04.467Z,24.50
2018-04-30T09:25:33.519Z,24.70
2018-04-30T09:28:02.659Z,24.80
2018-04-30T09:30:31.668Z,24.70
2018-04-30T09:33:00.726Z,24.80
2018-04-30T09:35:30.583Z,24.90
2018-04-30T09:37:59.668Z,24.90
2018-04-30T09:40:29.542Z,25.00
2018-04-30T09:42:58.623Z,25.00
2018-04-30T09:45:27.681Z,25.00
2018-04-30T09:47:56.769Z,25.10
2018-04-30T09:50:25.909Z,25.10
2018-04-30T09:52:54.962Z,25.20
2018-04-30T09:55:24.827Z,25.20
2018-04-30T09:57:53.896Z,25.20
2018-04-30T10:00:23.731Z,25.20
2018-04-30T10:02:52.860Z,25.20
2018-04-30T10:05:21.955Z,24.90
2018-04-30T10:07:51.085Z,24.80
2018-04-30T10:10:20.212Z,24.80
2018-04-30T10:12:49.339Z,24.90
2018-04-30T10:15:18.440Z,24.80
2018-04-30T10:17:47.606Z,24.80
2018-04-30T10:20:16.736Z,24.70
2018-04-30T10:22:45.829Z,24.70
2018-04-30T10:25:14.924Z,24.60
2018-04-30T10:27:44.780Z,24.40
2018-04-30T10:30:13.868Z,24.40
2018-04-30T10:32:43.756Z,24.20
2018-04-30T10:35:12.818Z,24.20
2018-04-30T10:37:42.236Z,24.00
2018-04-30T10:40:11.282Z,23.90
2018-04-30T10:42:40.447Z,23.70
2018-04-30T10:45:10.274Z,23.40
2018-04-30T10:47:40.096Z,23.10
2018-04-30T10:50:10.004Z,22.90
2018-04-30T10:52:39.099Z,22.90
2018-04-30T10:55:08.204Z,22.60
2018-04-30T10:57:37.306Z,22.50
2018-04-30T11:00:06.371Z,22.40
2018-04-30T11:02:36.277Z,22.40
2018-04-30T11:05:05.340Z,22.30
2018-04-30T11:07:34.433Z,22.40
2018-04-30T11:10:03.539Z,22.30
2018-04-30T11:12:32.670Z,22.10
2018-04-30T11:15:01.717Z,22.00
2018-04-30T11:17:31.480Z,21.80
2018-04-30T11:20:01.304Z,21.60
2018-04-30T11:22:31.128Z,21.70
2018-04-30T11:25:00.989Z,21.90
2018-04-30T11:27:30.083Z,21.90
2018-04-30T11:29:59.436Z,22.10
2018-04-30T11:32:28.574Z,22.30
2018-04-30T11:34:58.429Z,22.80
2018-04-30T11:37:27.499Z,22.80
2018-04-30T11:39:56.622Z,23.10
2018-04-30T11:42:26.463Z,23.40
2018-04-30T11:44:55.568Z,23.40
2018-04-30T11:47:25.464Z,23.30
2018-04-30T11:49:54.561Z,23.30
2018-04-30T11:52:23.677Z,23.10
2018-04-30T11:54:52.799Z,23.00
2018-04-30T11:57:21.898Z,22.90
2018-04-30T11:59:51.412Z,22.90
2018-04-30T12:02:20.494Z,22.90
2018-04-30T12:04:49.658Z,22.90
2018-04-30T12:07:19.544Z,22.90
2018-04-30T12:09:48.700Z,22.80
2018-04-30T12:12:17.808Z,22.70
2018-04-30T12:14:47.737Z,22.70
2018-04-30T12:17:16.876Z,22.70
2018-04-30T12:19:46.775Z,22.60
2018-04-30T12:22:15.895Z,22.60
2018-04-30T12:24:45.200Z,22.40
2018-04-30T12:30:12.171Z,22.00
2018-04-30T12:32:41.295Z,21.80
2018-04-30T12:35:10.408Z,21.60
2018-04-30T12:37:39.550Z,21.50
2018-04-30T12:40:08.632Z,21.50
2018-04-30T12:42:37.782Z,21.70
2018-04-30T12:45:07.663Z,22.20
2018-04-30T12:47:36.821Z,22.20
2018-04-30T12:50:06.692Z,22.30
2018-04-30T12:52:35.831Z,22.30
2018-04-30T12:55:04.940Z,22.20
2018-04-30T12:57:34.737Z,22.10
2018-04-30T13:00:03.818Z,22.00
2018-04-30T13:02:32.976Z,22.00
2018-04-30T13:05:02.123Z,22.20
2018-04-30T13:07:31.993Z,22.80
2018-04-30T13:10:01.088Z,22.80
2018-04-30T13:12:30.188Z,22.80
2018-04-30T13:15:00.020Z,22.70
2018-04-30T13:17:29.872Z,22.50
2018-04-30T13:19:58.968Z,22.50
2018-04-30T13:22:28.819Z,22.50
2018-04-30T13:24:57.935Z,22.50
2018-04-30T13:27:26.991Z,22.60
2018-04-30T13:29:56.043Z,22.80
2018-04-30T13:32:25.127Z,23.00
2018-04-30T13:34:54.959Z,23.20
2018-04-30T13:37:24.908Z,23.30
2018-04-30T13:39:54.049Z,23.30
2018-04-30T13:42:23.140Z,23.40
2018-04-30T13:44:52.264Z,23.60
2018-04-30T13:47:21.975Z,23.50
2018-04-30T13:49:51.027Z,23.20
2018-04-30T13:52:20.081Z,23.10
2018-04-30T13:54:49.252Z,23.20
2018-04-30T13:57:18.312Z,23.40
2018-04-30T13:59:47.663Z,23.30
2018-04-30T14:02:16.831Z,23.10
2018-04-30T14:04:45.871Z,23.10
2018-04-30T14:07:14.927Z,23.30
2018-04-30T14:09:44.803Z,23.50
2018-04-30T14:12:13.855Z,23.50
2018-04-30T14:14:42.944Z,23.40
2018-04-30T14:17:12.004Z,23.60
2018-04-30T14:19:41.092Z,23.70
2018-04-30T14:22:10.947Z,23.40
2018-04-30T14:24:40.031Z,23.40
2018-04-30T14:27:09.855Z,23.40
2018-04-30T14:29:39.786Z,23.30
2018-04-30T14:32:09.606Z,23.50
2018-04-30T14:34:38.696Z,23.40
2018-04-30T14:37:07.754Z,23.50
2018-04-30T14:39:36.866Z,23.50
2018-04-30T14:42:05.958Z,23.70
2018-04-30T14:44:35.821Z,23.70
2018-04-30T14:47:04.983Z,23.70
2018-04-30T14:49:34.071Z,23.60
2018-04-30T14:52:03.167Z,23.40
2018-04-30T14:54:32.258Z,23.20
2018-04-30T14:57:01.348Z,23.10
2018-04-30T14:59:30.406Z,23.10
2018-04-30T15:01:59.488Z,22.90
2018-04-30T15:04:28.691Z,22.90
2018-04-30T15:06:57.747Z,22.80
2018-04-30T15:09:26.802Z,22.70
2018-04-30T15:11:56.656Z,22.50
2018-04-30T15:14:25.747Z,22.50
2018-04-30T15:16:54.802Z,22.50
2018-04-30T15:19:23.902Z,22.60
2018-04-30T15:21:52.958Z,22.50
2018-04-30T15:24:22.939Z,22.40
2018-04-30T15:26:51.995Z,22.40
2018-04-30T15:29:21.814Z,22.00
2018-04-30T15:31:50.912Z,22.00
2018-04-30T15:34:20.163Z,21.80
2018-04-30T15:36:50.012Z,21.90
2018-04-30T15:39:19.101Z,21.90
2018-04-30T15:41:48.158Z,22.00
2018-04-30T15:44:17.244Z,22.20
2018-04-30T15:46:46.361Z,22.20
2018-04-30T15:49:15.460Z,22.10
2018-04-30T15:51:44.551Z,22.00
2018-04-30T15:54:13.644Z,21.90
2018-04-30T15:56:43.626Z,21.80
2018-04-30T15:59:12.687Z,21.80
2018-04-30T16:01:42.507Z,22.00
2018-04-30T16:04:12.404Z,22.00
2018-04-30T16:06:41.500Z,22.00
2018-04-30T16:09:10.593Z,21.90
2018-04-30T16:11:39.899Z,21.70
2018-04-30T16:14:09.005Z,21.60
2018-04-30T16:16:38.160Z,21.50
2018-04-30T16:19:07.261Z,21.40
2018-04-30T16:21:36.322Z,21.40
2018-04-30T16:24:06.174Z,21.60
2018-04-30T16:26:35.347Z,21.50
2018-04-30T16:29:04.407Z,21.40
2018-04-30T16:31:33.640Z,21.50
2018-04-30T16:34:02.699Z,21.40
2018-04-30T16:36:32.580Z,21.40
2018-04-30T16:39:01.708Z,21.40
2018-04-30T16:41:30.771Z,21.40
2018-04-30T16:43:59.823Z,21.40
2018-04-30T16:46:28.912Z,21.40
2018-04-30T16:48:57.975Z,21.40
2018-04-30T16:51:27.791Z,21.20
2018-04-30T16:53:56.843Z,21.10
2018-04-30T16:56:25.973Z,21.00
2018-04-30T16:58:55.098Z,20.80
2018-04-30T17:01:24.189Z,20.70
2018-04-30T17:03:53.342Z,20.70
2018-04-30T17:06:22.401Z,20.70
2018-04-30T17:08:51.543Z,20.60
2018-04-30T17:11:21.010Z,20.50
2018-04-30T17:13:50.156Z,20.50
2018-04-30T17:16:19.435Z,20.50
2018-04-30T17:18:48.487Z,20.50
2018-04-30T17:21:17.546Z,20.40
2018-04-30T17:23:46.600Z,20.40
2018-04-30T17:26:16.424Z,20.30
2018-04-30T17:28:45.536Z,20.20
2018-04-30T17:31:14.595Z,20.20
2018-04-30T17:33:44.900Z,19.90
2018-04-30T17:36:13.964Z,19.90
2018-04-30T17:38:43.053Z,19.80
2018-04-30T17:41:12.134Z,19.70
2018-04-30T17:43:41.232Z,19.70
2018-04-30T17:46:10.351Z,19.40
2018-04-30T17:48:39.412Z,19.40
2018-04-30T17:51:08.475Z,19.40
2018-04-30T17:53:37.841Z,19.30
2018-04-30T17:56:06.907Z,19.10
2018-04-30T17:58:35.992Z,18.90
2018-04-30T18:01:05.101Z,18.90
2018-04-30T18:03:34.200Z,18.90
2018-04-30T18:06:03.364Z,18.80
2018-04-30T18:08:33.223Z,18.60
2018-04-30T18:11:02.319Z,18.60
2018-04-30T18:13:31.384Z,18.50
2018-04-30T18:16:00.440Z,18.40
2018-04-30T18:18:29.556Z,18.40
2018-04-30T18:20:58.651Z,18.20
2018-04-30T18:23:28.494Z,18.00
2018-04-30T18:25:57.632Z,17.90
2018-04-30T18:28:26.687Z,17.80
2018-04-30T18:30:56.643Z,17.50
2018-04-30T18:33:25.702Z,17.40
2018-04-30T18:35:54.767Z,17.30
2018-04-30T18:38:23.831Z,17.20
2018-04-30T18:40:52.891Z,17.00
2018-04-30T18:43:21.947Z,16.90
2018-04-30T18:45:51.032Z,16.70
2018-04-30T18:48:20.145Z,16.70
2018-04-30T18:50:49.451Z,16.60
2018-04-30T18:53:18.545Z,16.40
2018-04-30T18:55:47.678Z,16.30
2018-04-30T18:58:16.772Z,16.20
2018-04-30T19:00:45.891Z,16.10
2018-04-30T19:03:15.007Z,16.00
2018-04-30T19:05:44.076Z,15.90
2018-04-30T19:08:13.931Z,15.70
2018-04-30T19:10:43.020Z,15.70
2018-04-30T19:13:12.083Z,15.60
2018-04-30T19:15:41.147Z,15.50
2018-04-30T19:18:10.240Z,15.40
2018-04-30T19:20:39.338Z,15.40
2018-04-30T19:23:09.166Z,15.30
2018-04-30T19:25:38.995Z,15.20
2018-04-30T19:28:08.847Z,15.00
2018-04-30T19:30:37.914Z,14.90
2018-04-30T19:33:07.004Z,15.00
2018-04-30T19:35:36.097Z,15.00
2018-04-30T19:38:05.163Z,14.90
2018-04-30T19:40:34.991Z,14.80
2018-04-30T19:43:04.817Z,14.80
2018-04-30T19:45:34.643Z,14.80
2018-04-30T19:48:04.470Z,14.80
2018-04-30T19:50:34.294Z,14.70
2018-04-30T19:53:04.191Z,14.60
2018-04-30T19:55:33.288Z,14.60
2018-04-30T19:58:02.355Z,14.50
2018-04-30T20:00:32.217Z,14.40
2018-04-30T20:03:01.309Z,14.40
2018-04-30T20:05:30.378Z,14.40
2018-04-30T20:07:59.468Z,14.30
2018-04-30T20:10:28.636Z,14.30
2018-04-30T20:12:57.711Z,14.20
2018-04-30T20:15:26.804Z,14.20
2018-04-30T20:17:55.880Z,14.10
2018-04-30T20:20:25.021Z,14.00
2018-04-30T20:22:54.051Z,13.90
2018-04-30T20:25:23.114Z,13.80
2018-04-30T20:27:52.212Z,13.90
2018-04-30T20:30:21.276Z,13.90
2018-04-30T20:32:50.367Z,13.80
2018-04-30T20:35:19.473Z,13.80
2018-04-30T20:37:48.782Z,13.70
2018-04-30T20:40:18.033Z,13.60
2018-04-30T20:42:47.975Z,13.60
2018-04-30T20:45:17.036Z,13.60
2018-04-30T20:47:46.952Z,13.60
2018-04-30T20:50:16.023Z,13.60
2018-04-30T20:52:45.882Z,13.50
2018-04-30T20:55:14.947Z,13.50
2018-04-30T20:57:44.167Z,13.50
2018-04-30T21:00:13.312Z,13.40
2018-04-30T21:02:42.371Z,13.50
2018-04-30T21:05:11.466Z,13.40
2018-04-30T21:07:40.530Z,13.40
2018-04-30T21:10:09.624Z,13.40
2018-04-30T21:12:39.484Z,13.40
2018-04-30T21:15:08.548Z,13.40
2018-04-30T21:17:37.679Z,13.40
2018-04-30T21:20:07.532Z,13.30
2018-04-30T21:22:36.626Z,13.30
2018-04-30T21:25:05.692Z,13.30
2018-04-30T21:27:34.784Z,13.20
2018-04-30T21:30:03.851Z,13.20
2018-04-30T21:32:33.704Z,13.20
2018-04-30T21:35:02.778Z,13.10
2018-04-30T21:37:32.632Z,13.10
2018-04-30T21:40:01.720Z,13.10
2018-04-30T21:42:31.551Z,13.00
2018-04-30T21:45:01.412Z,13.00
2018-04-30T21:47:30.597Z,13.00
2018-04-30T21:49:59.634Z,12.90
2018-04-30T21:52:28.695Z,12.90
2018-04-30T21:54:58.526Z,12.80
2018-04-30T21:57:28.382Z,12.70
2018-04-30T21:59:58.247Z,12.60
2018-04-30T22:02:27.417Z,12.60
2018-04-30T22:04:56.514Z,12.60
2018-04-30T22:07:25.591Z,12.50
2018-04-30T22:09:54.700Z,12.50
2018-04-30T22:12:23.824Z,12.40
2018-04-30T22:14:52.915Z,12.40
2018-04-30T22:17:22.011Z,12.30
2018-04-30T22:19:51.138Z,12.20
2018-04-30T22:22:20.190Z,12.20
2018-04-30T22:24:50.043Z,12.20
2018-04-30T22:27:19.172Z,12.20
2018-04-30T22:29:48.999Z,12.00
2018-04-30T22:32:18.079Z,12.00
2018-04-30T22:34:47.382Z,11.90
2018-04-30T22:37:16.438Z,11.80
2018-04-30T22:39:45.494Z,11.80
2018-04-30T22:42:15.935Z,11.70
2018-04-30T22:44:45.792Z,11.70
2018-04-30T22:47:14.896Z,11.70
2018-04-30T22:49:43.971Z,11.70
2018-04-30T22:52:13.030Z,11.70
2018-04-30T22:54:42.091Z,11.60
2018-04-30T22:57:11.996Z,11.60
2018-04-30T22:59:41.062Z,11.70
2018-04-30T23:02:10.120Z,11.60
2018-04-30T23:04:39.207Z,11.60
2018-04-30T23:07:08.368Z,11.60
2018-04-30T23:09:38.202Z,11.50
2018-04-30T23:12:07.340Z,11.50
2018-04-30T23:14:36.407Z,11.50
2018-04-30T23:17:05.634Z,11.50
2018-04-30T23:19:34.663Z,11.50
2018-04-30T23:22:03.748Z,11.50
2018-04-30T23:24:33.674Z,11.30
2018-04-30T23:27:03.533Z,11.40
2018-04-30T23:29:32.660Z,11.40
2018-04-30T23:32:01.718Z,11.40
2018-04-30T23:34:30.814Z,11.10
2018-04-30T23:36:59.993Z,11.10
2018-04-30T23:39:29.128Z,11.10
2018-04-30T23:41:58.219Z,11.10
2018-04-30T23:44:27.309Z,11.10
2018-04-30T23:46:56.378Z,11.10
2018-04-30T23:49:26.317Z,11.10
2018-04-30T23:51:55.398Z,11.00
2018-04-30T23:54:24.493Z,11.00
2018-04-30T23:56:53.632Z,11.00
2018-04-30T23:59:23.474Z,10.90
